Time,TemperatureF,DewpointF,PressureIn,WindDirection,WindDirectionDegrees,WindSpeedMPH,WindSpeedGustMPH,Humidity,HourlyPrecipIn,Conditions,Clouds,dailyrainin,SoftwareType,DateUTC
2013-05-24 00:00:00,55.0,45.0,30.25,NE,45,0.0,0.0,69,0.00,,,0.00,weatherlink.com 1.10,2013-05-24 05:00:00,
2013-05-24 00:15:00,54.6,45.0,30.25,NE,45,0.0,3.0,69,0.00,,,0.00,weatherlink.com 1.10,2013-05-24 05:15:00,
2013-05-24 00:30:00,54.2,45.0,30.26,NE,45,1.0,3.0,70,0.00,,,0.00,weatherlink.com 1.10,2013-05-24 05:30:00,
2013-05-24 00:45:00,53.5,45.0,30.26,NE,46,5.0,6.0,72,0.00,,,0.00,weatherlink.com 1.10,2013-05-24 05:45:00,
2013-05-24 01:00:00,52.9,44.0,30.27,NE,49,4.0,7.0,73,0.00,,,0.00,weatherlink.com 1.10,2013-05-24 06:00:00,
2013-05-24 01:15:00,52.7,45.0,30.27,NE,50,1.0,6.0,74,0.00,,,0.00,weatherlink.com 1.10,2013-05-24 06:15:00,
2013-05-24 01:30:00,52.6,45.0,30.26,NE,51,0.0,7.0,74,0.00,,,0.00,weatherlink.com 1.10,2013-05-24 06:30:00,
2013-05-24 01:45:00,52.4,44.0,30.27,NE,52,0.0,6.0,74,0.00,,,0.00,weatherlink.com 1.10,2013-05-24 06:45:00,
2013-05-24 02:00:00,52.2,44.0,30.27,NE,52,2.0,5.0,74,0.00,,,0.00,weatherlink.com 1.10,2013-05-24 07:00:00,
2013-05-24 02:15:00,51.7,44.0,30.26,NE,52,3.0,5.0,75,0.00,,,0.00,weatherlink.com 1.10,2013-05-24 07:15:00,
2013-05-24 02:30:00,51.1,44.0,30.27,NE,52,0.0,5.0,77,0.00,,,0.00,weatherlink.com 1.10,2013-05-24 07:30:00,
2013-05-24 02:45:00,50.5,44.0,30.27,NE,52,0.0,3.0,79,0.00,,,0.00,weatherlink.com 1.10,2013-05-24 07:45:00,
2013-05-24 03:01:00,49.8,44.0,30.27,NE,52,0.0,4.0,79,0.00,,,0.00,weatherlink.com 1.10,2013-05-24 08:01:00,
2013-05-24 03:16:00,49.2,43.0,30.27,NE,52,0.0,5.0,80,0.00,,,0.00,weatherlink.com 1.10,2013-05-24 08:16:00,
2013-05-24 03:31:00,48.9,44.0,30.28,NE,53,5.0,6.0,82,0.00,,,0.00,weatherlink.com 1.10,2013-05-24 08:31:00,
2013-05-24 03:46:00,48.7,44.0,30.28,NE,54,0.0,6.0,83,0.00,,,0.00,weatherlink.com 1.10,2013-05-24 08:46:00,
2013-05-24 04:01:00,48.6,44.0,30.28,NE,55,4.0,5.0,83,0.00,,,0.00,weatherlink.com 1.10,2013-05-24 09:01:00,
2013-05-24 04:16:00,48.3,43.0,30.29,NE,55,0.0,4.0,83,0.00,,,0.00,weatherlink.com 1.10,2013-05-24 09:16:00,
2013-05-24 04:31:00,48.0,43.0,30.29,NE,55,2.0,6.0,84,0.00,,,0.00,weatherlink.com 1.10,2013-05-24 09:31:00,
2013-05-24 04:46:00,47.7,43.0,30.29,NE,56,2.0,6.0,84,0.00,,,0.00,weatherlink.com 1.10,2013-05-24 09:46:00,
2013-05-24 05:01:00,47.5,43.0,30.29,NE,56,0.0,4.0,83,0.00,,,0.00,weatherlink.com 1.10,2013-05-24 10:01:00,
2013-05-24 05:16:00,47.3,42.0,30.29,NE,56,0.0,3.0,83,0.00,,,0.00,weatherlink.com 1.10,2013-05-24 10:16:00,
2013-05-24 05:31:00,46.8,42.0,30.30,ENE,57,0.0,5.0,83,0.00,,,0.00,weatherlink.com 1.10,2013-05-24 10:31:00,
2013-05-24 05:46:00,46.4,42.0,30.30,ENE,57,5.0,5.0,84,0.00,,,0.00,weatherlink.com 1.10,2013-05-24 10:46:00,
2013-05-24 06:01:00,46.1,42.0,30.30,ENE,59,0.0,5.0,85,0.00,,,0.00,weatherlink.com 1.10,2013-05-24 11:01:00,
2013-05-24 06:16:00,45.9,42.0,30.30,ENE,59,0.0,5.0,86,0.00,,,0.00,weatherlink.com 1.10,2013-05-24 11:16:00,
2013-05-24 06:31:00,46.1,43.0,30.31,ENE,69,7.0,8.0,87,0.00,,,0.00,weatherlink.com 1.10,2013-05-24 11:31:00,
2013-05-24 06:46:00,47.4,44.0,30.30,ESE,102,4.0,11.0,87,0.00,,,0.00,weatherlink.com 1.10,2013-05-24 11:46:00,
2013-05-24 07:01:00,49.6,45.0,30.31,ESE,107,7.0,12.0,84,0.00,,,0.00,weatherlink.com 1.10,2013-05-24 12:01:00,
2013-05-24 07:16:00,51.4,45.0,30.32,ESE,110,4.0,11.0,79,0.00,,,0.00,weatherlink.com 1.10,2013-05-24 12:16:00,
2013-05-24 07:31:00,53.0,46.0,30.32,ESE,115,5.0,10.0,77,0.00,,,0.00,weatherlink.com 1.10,2013-05-24 12:31:00,
2013-05-24 07:46:00,54.2,47.0,30.32,ESE,120,0.0,11.0,76,0.00,,,0.00,weatherlink.com 1.10,2013-05-24 12:46:00,
2013-05-24 08:01:00,55.2,47.0,30.33,SE,128,0.0,10.0,75,0.00,,,0.00,weatherlink.com 1.10,2013-05-24 13:01:00,
2013-05-24 08:16:00,55.9,49.0,30.33,SE,128,4.0,9.0,77,0.00,,,0.00,weatherlink.com 1.10,2013-05-24 13:16:00,
2013-05-24 08:31:00,56.8,49.0,30.33,SE,125,7.0,11.0,75,0.00,,,0.00,weatherlink.com 1.10,2013-05-24 13:31:00,
2013-05-24 08:46:00,57.8,50.0,30.33,SE,128,5.0,17.0,74,0.00,,,0.00,weatherlink.com 1.10,2013-05-24 13:46:00,
2013-05-24 09:01:00,59.2,51.0,30.33,SE,138,5.0,13.0,74,0.00,,,0.00,weatherlink.com 1.10,2013-05-24 14:01:00,
2013-05-24 09:16:00,60.4,52.0,30.34,SE,139,5.0,14.0,73,0.00,,,0.00,weatherlink.com 1.10,2013-05-24 14:16:00,
2013-05-24 09:32:00,61.5,52.0,30.33,SE,144,2.0,11.0,72,0.00,,,0.00,weatherlink.com 1.10,2013-05-24 14:32:00,
2013-05-24 09:47:00,61.9,52.0,30.33,SE,126,6.0,12.0,70,0.00,,,0.00,weatherlink.com 1.10,2013-05-24 14:47:00,
2013-05-24 10:02:00,62.4,53.0,30.33,SE,132,1.0,13.0,71,0.00,,,0.00,weatherlink.com 1.10,2013-05-24 15:02:00,
2013-05-24 10:17:00,63.7,54.0,30.32,SE,138,3.0,14.0,70,0.00,,,0.00,weatherlink.com 1.10,2013-05-24 15:17:00,
2013-05-24 10:32:00,64.6,53.0,30.32,SE,137,8.0,11.0,67,0.00,,,0.00,weatherlink.com 1.10,2013-05-24 15:32:00,
2013-05-24 10:47:00,64.9,53.0,30.31,SE,146,2.0,15.0,66,0.00,,,0.00,weatherlink.com 1.10,2013-05-24 15:47:00,
2013-05-24 11:02:00,65.7,53.0,30.30,SE,124,1.0,14.0,63,0.00,,,0.00,weatherlink.com 1.10,2013-05-24 16:02:00,
2013-05-24 11:17:00,65.0,52.0,30.29,SE,129,6.0,14.0,64,0.00,,,0.00,weatherlink.com 1.10,2013-05-24 16:17:00,
2013-05-24 11:32:00,65.9,51.0,30.30,SE,132,8.0,17.0,59,0.00,,,0.00,weatherlink.com 1.10,2013-05-24 16:32:00,
2013-05-24 11:47:00,66.6,53.0,30.29,ESE,105,3.0,23.0,63,0.00,,,0.00,weatherlink.com 1.10,2013-05-24 16:47:00,
2013-05-24 12:02:00,66.9,52.0,30.29,SE,134,5.0,15.0,60,0.00,,,0.00,weatherlink.com 1.10,2013-05-24 17:02:00,
2013-05-24 12:17:00,66.8,53.0,30.28,SSE,157,4.0,19.0,61,0.00,,,0.00,weatherlink.com 1.10,2013-05-24 17:17:00,
2013-05-24 12:32:00,67.4,55.0,30.28,SE,140,16.0,20.0,64,0.00,,,0.00,weatherlink.com 1.10,2013-05-24 17:32:00,
2013-05-24 12:47:00,67.2,53.0,30.27,SE,128,10.0,15.0,61,0.00,,,0.00,weatherlink.com 1.10,2013-05-24 17:47:00,
2013-05-24 13:02:00,67.6,53.0,30.27,ESE,106,7.0,18.0,59,0.00,,,0.00,weatherlink.com 1.10,2013-05-24 18:02:00,
2013-05-24 13:17:00,68.1,53.0,30.27,SSE,149,8.0,21.0,58,0.00,,,0.00,weatherlink.com 1.10,2013-05-24 18:17:00,
2013-05-24 13:32:00,68.4,52.0,30.27,SSE,159,4.0,17.0,57,0.00,,,0.00,weatherlink.com 1.10,2013-05-24 18:32:00,
2013-05-24 13:47:00,68.2,52.0,30.27,SE,138,9.0,21.0,56,0.00,,,0.00,weatherlink.com 1.10,2013-05-24 18:47:00,
2013-05-24 14:02:00,69.1,56.0,30.25,South,187,2.0,15.0,64,0.00,,,0.00,weatherlink.com 1.10,2013-05-24 19:02:00,
2013-05-24 14:17:00,68.2,52.0,30.25,SE,138,4.0,17.0,57,0.00,,,0.00,weatherlink.com 1.10,2013-05-24 19:17:00,
2013-05-24 14:32:00,69.2,52.0,30.25,SE,130,5.0,20.0,55,0.00,,,0.00,weatherlink.com 1.10,2013-05-24 19:32:00,
2013-05-24 14:47:00,69.7,52.0,30.23,East,91,5.0,16.0,54,0.00,,,0.00,weatherlink.com 1.10,2013-05-24 19:47:00,
2013-05-24 15:02:00,69.1,52.0,30.23,SE,134,3.0,16.0,54,0.00,,,0.00,weatherlink.com 1.10,2013-05-24 20:02:00,
2013-05-24 15:17:00,69.5,51.0,30.22,East,100,10.0,21.0,53,0.00,,,0.00,weatherlink.com 1.10,2013-05-24 20:17:00,
2013-05-24 15:32:00,69.9,54.0,30.23,SE,130,0.0,19.0,57,0.00,,,0.00,weatherlink.com 1.10,2013-05-24 20:32:00,
2013-05-24 15:47:00,69.2,53.0,30.22,SE,140,2.0,21.0,56,0.00,,,0.00,weatherlink.com 1.10,2013-05-24 20:47:00,
2013-05-24 16:02:00,69.7,52.0,30.21,SSE,158,10.0,16.0,54,0.00,,,0.00,weatherlink.com 1.10,2013-05-24 21:02:00,
2013-05-24 16:17:00,69.8,52.0,30.20,SE,140,8.0,14.0,53,0.00,,,0.00,weatherlink.com 1.10,2013-05-24 21:17:00,
2013-05-24 16:32:00,69.4,52.0,30.20,SE,139,7.0,18.0,55,0.00,,,0.00,weatherlink.com 1.10,2013-05-24 21:32:00,
2013-05-24 16:47:00,69.6,51.0,30.20,SE,136,4.0,19.0,52,0.00,,,0.00,weatherlink.com 1.10,2013-05-24 21:47:00,
2013-05-24 17:02:00,69.8,50.0,30.20,South,175,6.0,18.0,50,0.00,,,0.00,weatherlink.com 1.10,2013-05-24 22:02:00,
2013-05-24 17:17:00,69.4,49.0,30.19,South,178,5.0,23.0,48,0.00,,,0.00,weatherlink.com 1.10,2013-05-24 22:17:00,
2013-05-24 17:32:00,69.5,49.0,30.19,SSE,155,9.0,13.0,48,0.00,,,0.00,weatherlink.com 1.10,2013-05-24 22:32:00,
2013-05-24 17:47:00,69.2,50.0,30.18,SE,144,0.0,14.0,50,0.00,,,0.00,weatherlink.com 1.10,2013-05-24 22:47:00,
2013-05-24 18:02:00,69.1,50.0,30.18,SSE,158,0.0,15.0,51,0.00,,,0.00,weatherlink.com 1.10,2013-05-24 23:02:00,
2013-05-24 18:17:00,67.6,49.0,30.17,SE,131,1.0,11.0,52,0.00,,,0.00,weatherlink.com 1.10,2013-05-24 23:17:00,
2013-05-24 18:32:00,66.8,50.0,30.16,ESE,123,0.0,13.0,55,0.00,,,0.00,weatherlink.com 1.10,2013-05-24 23:32:00,
2013-05-24 18:48:00,66.1,50.0,30.15,SE,139,2.0,12.0,57,0.00,,,0.00,weatherlink.com 1.10,2013-05-24 23:48:00,
2013-05-24 19:03:00,65.9,49.0,30.16,SE,142,0.0,9.0,55,0.00,,,0.00,weatherlink.com 1.10,2013-05-25 00:03:00,
2013-05-24 19:33:00,64.5,51.0,30.13,SE,133,6.0,20.0,61,0.00,,,0.00,weatherlink.com 1.10,2013-05-25 00:33:00,
2013-05-24 19:48:00,62.0,50.0,30.10,SE,126,3.0,22.0,64,0.01,,,0.01,weatherlink.com 1.10,2013-05-25 00:48:00,
2013-05-24 20:03:00,63.1,51.0,30.14,ESE,105,8.0,10.0,65,0.01,,,0.01,weatherlink.com 1.10,2013-05-25 01:03:00,
2013-05-24 20:18:00,62.8,50.0,30.15,East,96,0.0,11.0,64,0.01,,,0.01,weatherlink.com 1.10,2013-05-25 01:18:00,
2013-05-24 20:33:00,62.9,50.0,30.15,East,96,8.0,18.0,62,0.01,,,0.01,weatherlink.com 1.10,2013-05-25 01:33:00,
2013-05-24 20:48:00,62.2,50.0,30.17,ENE,61,7.0,11.0,64,0.00,,,0.01,weatherlink.com 1.10,2013-05-25 01:48:00,
2013-05-24 21:03:00,61.7,51.0,30.17,ENE,72,0.0,9.0,67,0.00,,,0.01,weatherlink.com 1.10,2013-05-25 02:03:00,
2013-05-24 21:18:00,61.3,51.0,30.18,East,93,3.0,8.0,69,0.00,,,0.01,weatherlink.com 1.10,2013-05-25 02:18:00,
2013-05-24 21:33:00,60.4,52.0,30.16,East,92,3.0,10.0,73,0.00,,,0.01,weatherlink.com 1.10,2013-05-25 02:33:00,
2013-05-24 21:48:00,60.1,50.0,30.17,ESE,110,2.0,14.0,70,0.00,,,0.01,weatherlink.com 1.10,2013-05-25 02:48:00,
2013-05-24 22:03:00,59.5,50.0,30.17,ESE,110,5.0,17.0,70,0.00,,,0.01,weatherlink.com 1.10,2013-05-25 03:03:00,
2013-05-24 22:18:00,59.3,50.0,30.18,ESE,112,2.0,13.0,70,0.00,,,0.01,weatherlink.com 1.10,2013-05-25 03:18:00,
2013-05-24 22:33:00,59.0,49.0,30.19,SE,129,9.0,13.0,70,0.00,,,0.01,weatherlink.com 1.10,2013-05-25 03:33:00,
2013-05-24 22:48:00,58.4,49.0,30.19,ESE,115,0.0,13.0,71,0.00,,,0.01,weatherlink.com 1.10,2013-05-25 03:48:00,
2013-05-24 23:03:00,57.9,49.0,30.19,ESE,105,7.0,13.0,73,0.00,,,0.01,weatherlink.com 1.10,2013-05-25 04:03:00,
2013-05-24 23:18:00,57.1,49.0,30.19,ESE,106,0.0,11.0,75,0.00,,,0.01,weatherlink.com 1.10,2013-05-25 04:18:00,
2013-05-24 23:33:00,57.2,49.0,30.20,ESE,111,5.0,10.0,74,0.00,,,0.01,weatherlink.com 1.10,2013-05-25 04:33:00,
2013-05-24 23:48:00,57.6,49.0,30.20,ESE,111,0.0,9.0,74,0.00,,,0.01,weatherlink.com 1.10,2013-05-25 04:48:00,